createdAt,value
2022-12-06T00:04:06.062Z,3.87
2022-12-06T00:09:20.815Z,3.89
2022-12-06T00:14:35.671Z,3.89
2022-12-06T00:19:50.548Z,3.91
2022-12-06T00:25:05.466Z,3.91
2022-12-06T00:30:20.959Z,3.97
2022-12-06T00:34:45.868Z,3.97
2022-12-06T00:39:28.224Z,3.99
2022-12-06T00:44:36.691Z,3.99
2022-12-06T00:49:46.090Z,4
2022-12-06T00:54:56.241Z,4
2022-12-06T01:00:04.665Z,3.99
2022-12-06T01:05:13.154Z,3.99
2022-12-06T01:10:22.909Z,4.1
2022-12-06T01:15:31.391Z,4.1
2022-12-06T01:20:41.185Z,4.04
2022-12-06T01:25:50.272Z,4.09
2022-12-06T01:30:59.067Z,4.09
2022-12-06T01:36:07.233Z,4.08
2022-12-06T01:41:15.743Z,4.08
2022-12-06T01:46:25.870Z,4.13
2022-12-06T01:51:36.518Z,4.13
2022-12-06T01:56:46.294Z,4.06
2022-12-06T02:01:55.893Z,4.06
2022-12-06T02:07:03.877Z,4.02
2022-12-06T02:12:18.234Z,4.02
2022-12-06T02:17:36.178Z,3.94
2022-12-06T02:22:52.957Z,3.94
2022-12-06T02:28:09.884Z,3.95
2022-12-06T02:33:26.033Z,3.95
2022-12-06T02:38:44.119Z,3.94
2022-12-06T02:44:00.283Z,3.94
2022-12-06T02:49:17.080Z,3.96
2022-12-06T02:54:33.718Z,3.96
2022-12-06T02:59:51.325Z,3.95
2022-12-06T03:04:17.953Z,3.95
2022-12-06T03:09:00.368Z,3.92
2022-12-06T03:14:15.158Z,3.92
2022-12-06T03:19:18.616Z,3.96
2022-12-06T03:24:28.356Z,3.96
2022-12-06T03:29:36.835Z,4.01
2022-12-06T03:34:46.597Z,4.01
2022-12-06T03:39:55.081Z,4
2022-12-06T03:45:04.865Z,4
2022-12-06T03:50:17.746Z,3.99
2022-12-06T03:55:33.925Z,3.99
2022-12-06T04:00:50.095Z,3.97
2022-12-06T04:06:06.228Z,3.97
2022-12-06T04:11:22.242Z,4
2022-12-06T04:16:37.918Z,4
2022-12-06T04:21:52.795Z,3.97
2022-12-06T04:27:08.943Z,4.06
2022-12-06T04:32:23.927Z,4.06
2022-12-06T04:37:39.992Z,4.07
2022-12-06T04:42:56.147Z,4.07
2022-12-06T04:47:21.794Z,4.07
2022-12-06T04:52:04.688Z,4.07
2022-12-06T04:57:14.441Z,4.11
2022-12-06T05:02:24.216Z,4.11
2022-12-06T05:07:33.732Z,4.13
2022-12-06T05:12:41.790Z,4.13
2022-12-06T05:17:51.564Z,4.09
2022-12-06T05:23:00.061Z,4.09
2022-12-06T05:28:09.816Z,4.11
2022-12-06T05:33:18.291Z,4.11
2022-12-06T05:38:27.431Z,4.04
2022-12-06T05:43:35.912Z,4.04
2022-12-06T05:48:45.643Z,4.04
2022-12-06T05:53:54.743Z,4.04
2022-12-06T05:59:03.282Z,4.05
2022-12-06T06:04:12.994Z,4.05
2022-12-06T06:09:21.466Z,4
2022-12-06T06:14:31.888Z,4
2022-12-06T06:19:41.674Z,4.04
2022-12-06T06:24:50.112Z,4.04
2022-12-06T06:30:00.915Z,4.03
2022-12-06T06:35:08.397Z,4.03
2022-12-06T06:40:16.836Z,4.1
2022-12-06T06:45:31.827Z,4.1
2022-12-06T06:50:47.689Z,4.12
2022-12-06T06:56:02.867Z,4.12
2022-12-06T07:01:19.090Z,4.12
2022-12-06T07:06:35.829Z,4.12
2022-12-06T07:11:50.741Z,4.14
2022-12-06T07:17:06.239Z,4.14
2022-12-06T07:22:21.745Z,4.19
2022-12-06T07:27:42.131Z,4.11
2022-12-06T07:32:55.460Z,4.11
2022-12-06T07:38:11.640Z,4.08
2022-12-06T07:43:04.058Z,4.08
2022-12-06T07:47:20.544Z,4.13
2022-12-06T07:52:32.252Z,4.13
2022-12-06T07:57:44.481Z,4.16
2022-12-06T08:02:51.751Z,4.16
2022-12-06T08:08:01.132Z,4.14
2022-12-06T08:13:13.108Z,4.14
2022-12-06T08:18:29.272Z,4.15
2022-12-06T08:23:45.442Z,4.15
2022-12-06T08:29:01.620Z,4.18
2022-12-06T08:34:16.456Z,4.18
2022-12-06T08:39:32.633Z,4.14
2022-12-06T08:44:48.818Z,4.14
2022-12-06T08:50:04.315Z,4.14
2022-12-06T08:55:18.578Z,4.14
2022-12-06T09:00:34.701Z,4.19
2022-12-06T09:05:49.625Z,4.19
2022-12-06T09:11:05.107Z,4.21
2022-12-06T09:15:31.931Z,4.21
2022-12-06T09:20:40.602Z,4.12
2022-12-06T09:25:57.614Z,4.12
2022-12-06T09:31:13.624Z,4.12
2022-12-06T09:36:30.361Z,4.12
2022-12-06T09:41:46.600Z,4.11
2022-12-06T09:47:02.680Z,4.11
2022-12-06T09:52:18.208Z,4.2
2022-12-06T09:57:37.588Z,4.2
2022-12-06T10:02:03.960Z,4.15
2022-12-06T10:06:33.796Z,4.15
2022-12-06T10:11:48.603Z,4.13
2022-12-06T10:17:06.046Z,4.13
2022-12-06T10:22:22.231Z,4.01
2022-12-06T10:27:37.725Z,4
2022-12-06T10:32:54.136Z,4
2022-12-06T10:38:12.129Z,3.97
2022-12-06T10:43:28.923Z,3.97
2022-12-06T10:48:44.923Z,3.95
2022-12-06T10:54:02.364Z,3.95
2022-12-06T10:58:28.842Z,3.96
2022-12-06T11:03:16.089Z,3.96
2022-12-06T11:08:25.822Z,3.89
2022-12-06T11:13:34.948Z,3.89
2022-12-06T11:18:44.678Z,3.9
2022-12-06T11:23:53.159Z,3.9
2022-12-06T11:29:01.661Z,3.93
2022-12-06T11:34:10.114Z,3.93
2022-12-06T11:39:19.241Z,3.91
2022-12-06T11:44:28.403Z,3.91
2022-12-06T11:49:38.118Z,3.89
2022-12-06T11:54:47.905Z,3.89
2022-12-06T11:59:56.347Z,3.96
2022-12-06T12:05:06.120Z,3.96
2022-12-06T12:10:15.300Z,3.99
2022-12-06T12:15:23.712Z,3.99
2022-12-06T12:20:32.840Z,3.9
2022-12-06T12:25:42.599Z,3.9
2022-12-06T12:27:29.027Z,3.9
2022-12-06T12:32:32.209Z,3.9
2022-12-06T12:37:42.592Z,3.92
2022-12-06T12:42:50.466Z,3.92
2022-12-06T12:48:00.240Z,4.02
2022-12-06T12:53:09.510Z,4.02
2022-12-06T12:58:17.836Z,4.04
2022-12-06T13:03:52.036Z,4.04
2022-12-06T13:08:34.763Z,3.99
2022-12-06T13:13:43.241Z,3.99
2022-12-06T13:18:52.354Z,3.93
2022-12-06T13:24:00.832Z,3.93
2022-12-06T13:29:10.621Z,3.89
2022-12-06T13:34:20.348Z,3.89
2022-12-06T13:39:35.318Z,3.81
2022-12-06T13:44:52.122Z,3.81
2022-12-06T13:50:11.022Z,3.76
2022-12-06T13:55:27.806Z,3.76
2022-12-06T14:00:43.962Z,3.8
2022-12-06T14:05:18.440Z,3.8
2022-12-06T14:16:34.382Z,3.77
2022-12-06T14:21:50.446Z,3.77
2022-12-06T14:32:25.331Z,3.78
2022-12-06T14:48:17.241Z,3.74
2022-12-06T14:53:33.885Z,3.78
2022-12-06T14:58:49.879Z,3.78
2022-12-06T15:04:06.195Z,3.78
2022-12-06T15:09:21.593Z,3.78
2022-12-06T15:14:37.746Z,3.85
2022-12-06T15:19:53.268Z,3.85
2022-12-06T15:25:10.101Z,3.88
2022-12-06T15:30:24.928Z,3.88
2022-12-06T15:34:51.114Z,3.87
2022-12-06T15:39:15.989Z,3.84
2022-12-06T15:43:40.854Z,3.84
2022-12-06T15:48:21.435Z,3.87
2022-12-06T15:53:31.098Z,3.87
2022-12-06T15:58:40.195Z,3.86
2022-12-06T16:03:49.742Z,3.86
2022-12-06T16:08:59.959Z,3.83
2022-12-06T16:14:08.224Z,3.83
2022-12-06T16:19:17.958Z,3.92
2022-12-06T16:24:27.105Z,3.92
2022-12-06T16:29:36.828Z,3.93
2022-12-06T16:34:45.951Z,3.93
2022-12-06T16:39:55.714Z,3.93
2022-12-06T16:45:04.824Z,3.93
2022-12-06T16:50:14.052Z,3.95
2022-12-06T16:55:24.375Z,3.95
2022-12-06T17:00:33.324Z,3.95
2022-12-06T17:05:42.866Z,3.95
2022-12-06T17:10:52.391Z,3.94
2022-12-06T17:16:02.491Z,3.94
2022-12-06T17:21:17.575Z,3.91
2022-12-06T17:26:20.356Z,3.91
2022-12-06T17:31:29.759Z,3.93
2022-12-06T17:36:38.645Z,3.93
2022-12-06T17:41:52.481Z,3.94
2022-12-06T17:47:07.184Z,3.94
2022-12-06T17:52:23.336Z,3.94
2022-12-06T17:57:41.434Z,3.94
2022-12-06T18:02:56.436Z,3.97
2022-12-06T18:08:11.223Z,3.97
2022-12-06T18:18:42.236Z,3.9
2022-12-06T18:24:22.412Z,3.97
2022-12-06T18:29:12.629Z,3.97
2022-12-06T18:34:28.863Z,4
2022-12-06T18:39:44.310Z,3.97
2022-12-06T18:45:00.891Z,3.97
2022-12-06T18:50:15.987Z,3.95
2022-12-06T18:55:32.793Z,3.95
2022-12-06T19:00:48.374Z,3.93
2022-12-06T19:05:19.873Z,3.93
2022-12-06T19:09:39.447Z,3.99
2022-12-06T19:14:54.900Z,3.99
2022-12-06T19:20:11.103Z,3.97
2022-12-06T19:25:25.909Z,3.97
2022-12-06T19:30:41.512Z,4
2022-12-06T19:35:56.951Z,4
2022-12-06T19:41:11.857Z,3.93
2022-12-06T19:46:26.761Z,3.93
2022-12-06T19:51:43.515Z,3.93
2022-12-06T19:56:59.704Z,3.93
2022-12-06T20:00:55.873Z,3.96
2022-12-06T20:06:04.394Z,3.96
2022-12-06T20:11:14.123Z,3.97
2022-12-06T20:16:26.087Z,3.97
2022-12-06T20:21:34.278Z,4.02
2022-12-06T20:26:43.430Z,4.02
2022-12-06T20:31:51.873Z,4
2022-12-06T20:37:00.354Z,4
2022-12-06T20:42:08.860Z,4.01
2022-12-06T20:47:18.344Z,4.01
2022-12-06T20:52:27.715Z,4.05
2022-12-06T20:57:36.225Z,4.05
2022-12-06T21:02:46.323Z,4.09
2022-12-06T21:07:53.963Z,4.09
2022-12-06T21:13:06.483Z,4.14
2022-12-06T21:18:20.161Z,4.14
2022-12-06T21:23:22.473Z,4.13
2022-12-06T21:28:31.553Z,4.13
2022-12-06T21:33:40.675Z,4.21
2022-12-06T21:38:53.563Z,4.21
2022-12-06T21:44:11.084Z,4.32
2022-12-06T21:49:27.319Z,4.27
2022-12-06T21:54:43.331Z,4.27
2022-12-06T22:00:00.005Z,4.36
2022-12-06T22:05:16.294Z,4.36
2022-12-06T22:10:33.247Z,4.4
2022-12-06T22:15:50.234Z,4.4
2022-12-06T22:21:07.483Z,4.55
2022-12-06T22:26:23.867Z,4.55
2022-12-06T22:30:21.670Z,4.5
2022-12-06T22:35:30.789Z,4.5
2022-12-06T22:40:39.242Z,4.6
2022-12-06T22:45:48.411Z,4.6
2022-12-06T22:50:58.115Z,4.59
2022-12-06T22:56:07.228Z,4.59
2022-12-06T23:01:17.528Z,4.63
2022-12-06T23:06:31.217Z,4.63
2022-12-06T23:11:47.348Z,4.69
2022-12-06T23:17:03.510Z,4.69
2022-12-06T23:22:19.673Z,4.72
2022-12-06T23:27:34.560Z,4.72
2022-12-06T23:32:50.159Z,4.61
2022-12-06T23:38:05.621Z,4.61
2022-12-06T23:43:22.423Z,4.68
2022-12-06T23:48:39.186Z,4.68
2022-12-06T23:53:54.073Z,4.69
2022-12-06T23:59:08.965Z,4.69
